createdAt,value
2023-05-10T00:03:10.901Z,98800.31
2023-05-10T00:08:15.427Z,98790.22
2023-05-10T00:13:18.469Z,98790.59
2023-05-10T00:18:21.535Z,98786.06
2023-05-10T00:23:25.888Z,98765.88
2023-05-10T00:28:29.409Z,98765.56
2023-05-10T00:33:32.510Z,98773.06
2023-05-10T00:38:36.924Z,98768.97
2023-05-10T00:43:39.956Z,98770.28
2023-05-10T00:48:43.107Z,98786.63
2023-05-10T00:53:48.041Z,98774.78
2023-05-10T00:58:51.223Z,98790.28
2023-05-10T01:03:54.500Z,98788.56
2023-05-10T01:08:58.880Z,98784.69
2023-05-10T01:14:02.290Z,98786.38
2023-05-10T01:19:06.934Z,98783.56
2023-05-10T01:24:41.608Z,98788.25
2023-05-10T01:30:21.900Z,98801.16
2023-05-10T01:35:38.476Z,98798.13
2023-05-10T01:40:49.067Z,98803.13
2023-05-10T01:46:01.711Z,98803.97
2023-05-10T01:51:07.806Z,98814.19
2023-05-10T01:56:12.954Z,98818.97
2023-05-10T02:01:17.323Z,98826.50
2023-05-10T02:06:23.365Z,98840.41
2023-05-10T02:11:27.598Z,98847.53
2023-05-10T02:16:32.855Z,98859.19
2023-05-10T02:21:39.064Z,98861.59
2023-05-10T02:26:44.132Z,98860.66
2023-05-10T02:31:48.325Z,98862.34
2023-05-10T02:36:54.197Z,98864.41
2023-05-10T02:41:59.280Z,98868.34
2023-05-10T02:47:02.365Z,98868.53
2023-05-10T02:52:10.226Z,98868.53
2023-05-10T02:57:19.062Z,98885.88
2023-05-10T03:02:23.144Z,98880.16
2023-05-10T03:07:27.986Z,98889.66
2023-05-10T03:12:43.299Z,98888.97
2023-05-10T03:17:58.969Z,98893.19
2023-05-10T03:23:09.460Z,98896.75
2023-05-10T03:28:14.115Z,98902.31
2023-05-10T03:33:17.387Z,98906.63
2023-05-10T03:38:21.743Z,98903.56
2023-05-10T03:43:24.898Z,98905.59
2023-05-10T03:48:27.900Z,98915.47
2023-05-10T03:53:32.245Z,98916.03
2023-05-10T03:58:35.363Z,98914.91
2023-05-10T04:03:39.154Z,98920.56
2023-05-10T04:08:43.573Z,98927.56
2023-05-10T04:13:46.560Z,98933.38
2023-05-10T04:18:50.299Z,98934.03
2023-05-10T04:23:54.717Z,98938.56
2023-05-10T04:28:57.740Z,98936.22
2023-05-10T04:34:00.853Z,98931.78
2023-05-10T04:39:06.197Z,98943.47
2023-05-10T04:44:09.242Z,98951.53
2023-05-10T04:49:12.709Z,98947.78
2023-05-10T04:54:17.103Z,98951.53
2023-05-10T04:59:20.132Z,98947.22
2023-05-10T05:04:24.352Z,98956.81
2023-05-10T05:09:28.778Z,98954.28
2023-05-10T05:14:31.806Z,98954.03
2023-05-10T05:19:34.884Z,98952.44
2023-05-10T05:24:39.514Z,98954.88
2023-05-10T05:29:42.648Z,98940.00
2023-05-10T05:34:46.776Z,98956.81
2023-05-10T05:39:51.117Z,98959.00
2023-05-10T05:44:54.127Z,98966.22
2023-05-10T05:49:57.203Z,98959.13
2023-05-10T05:55:01.536Z,98976.13
2023-05-10T06:00:05.174Z,98974.66
2023-05-10T06:05:09.147Z,98986.50
2023-05-10T06:10:13.644Z,98981.03
2023-05-10T06:15:17.716Z,98983.03
2023-05-10T06:20:20.869Z,98970.34
2023-05-10T06:25:25.618Z,98974.66
2023-05-10T06:49:39.305Z,98979.69
2023-05-10T06:54:47.690Z,98984.25
2023-05-10T06:59:58.974Z,98978.81
2023-05-10T07:05:05.571Z,98980.50
2023-05-10T07:10:12.703Z,98979.66
2023-05-10T07:15:24.916Z,98996.22
2023-05-10T07:20:36.663Z,98996.34
2023-05-10T07:26:15.741Z,98989.84
2023-05-10T07:31:28.906Z,99003.25
2023-05-10T07:40:48.488Z,99010.56
2023-05-10T07:43:00.895Z,99007.81
2023-05-10T07:48:04.202Z,99019.97
2023-05-10T07:53:07.489Z,99008.59
2023-05-10T07:58:11.825Z,99017.84
2023-05-10T08:03:14.935Z,99023.50
2023-05-10T08:08:18.440Z,99030.91
2023-05-10T08:13:23.017Z,99024.59
2023-05-10T08:18:26.322Z,99024.47
2023-05-10T08:23:29.349Z,99026.66
2023-05-10T08:28:33.725Z,99017.22
2023-05-10T08:33:36.723Z,99020.31
2023-05-10T08:38:39.802Z,99018.25
2023-05-10T08:43:47.555Z,99025.66
2023-05-10T08:48:52.559Z,99018.34
2023-05-10T08:53:56.135Z,99027.44
2023-05-10T08:59:00.683Z,99032.22
2023-05-10T09:04:05.258Z,99032.56
2023-05-10T09:09:08.486Z,99051.25
2023-05-10T09:14:14.507Z,99047.59
2023-05-10T09:19:17.654Z,99061.38
2023-05-10T09:24:20.727Z,99062.75
2023-05-10T09:29:25.126Z,99080.13
2023-05-10T09:34:31.650Z,99089.19
2023-05-10T09:39:35.545Z,99082.25
2023-05-10T09:44:41.808Z,99077.53
2023-05-10T09:49:45.173Z,99071.81
2023-05-10T09:54:54.713Z,99057.72
2023-05-10T10:00:02.352Z,99074.88
2023-05-10T10:05:05.964Z,99056.84
2023-05-10T10:10:12.492Z,99063.19
2023-05-10T10:15:17.173Z,99058.34
2023-05-10T10:20:21.923Z,99057.41
2023-05-10T10:25:25.284Z,99059.84
2023-05-10T10:30:37.302Z,99052.09
2023-05-10T10:35:41.580Z,99045.06
2023-05-10T10:40:44.737Z,99043.41
2023-05-10T10:46:11.671Z,99036.41
2023-05-10T10:51:15.313Z,99036.81
2023-05-10T10:56:25.133Z,99028.78
2023-05-10T11:01:34.920Z,99039.25
2023-05-10T11:06:38.042Z,99047.88
2023-05-10T11:11:52.867Z,99052.00
2023-05-10T11:16:57.470Z,99055.94
2023-05-10T11:22:16.070Z,99048.75
2023-05-10T11:27:19.235Z,99052.03
2023-05-10T11:32:24.289Z,99064.31
2023-05-10T11:37:33.368Z,99057.53
2023-05-10T11:42:36.363Z,99061.38
2023-05-10T11:47:43.115Z,99070.81
2023-05-10T11:52:46.129Z,99072.16
2023-05-10T11:57:50.023Z,99071.88
2023-05-10T12:02:54.893Z,99076.38
2023-05-10T12:08:12.909Z,99089.94
2023-05-10T12:13:17.007Z,99087.00
2023-05-10T12:18:26.641Z,99100.13
2023-05-10T12:23:29.760Z,99099.94
2023-05-10T12:28:33.895Z,99098.09
2023-05-10T12:33:43.282Z,99109.25
2023-05-10T12:38:48.897Z,99111.91
2023-05-10T12:43:53.423Z,99120.69
2023-05-10T12:49:07.891Z,99124.53
2023-05-10T12:54:12.836Z,99116.03
2023-05-10T12:59:15.838Z,99128.28
2023-05-10T13:04:20.337Z,99122.19
2023-05-10T13:09:23.728Z,99124.28
2023-05-10T13:14:27.204Z,99121.75
2023-05-10T13:19:31.610Z,99131.44
2023-05-10T13:24:34.706Z,99127.09
2023-05-10T13:29:37.694Z,99129.22
2023-05-10T13:34:42.006Z,99133.03
2023-05-10T13:39:45.263Z,99134.31
2023-05-10T13:44:48.267Z,99127.56
2023-05-10T13:49:52.587Z,99122.50
2023-05-10T13:54:56.881Z,99122.88
2023-05-10T14:00:00.534Z,99142.13
2023-05-10T14:05:05.606Z,99134.78
2023-05-10T14:10:09.289Z,99140.66
2023-05-10T14:15:12.905Z,99141.13
2023-05-10T14:20:17.336Z,99139.28
2023-05-10T14:25:20.911Z,99134.28
2023-05-10T14:30:23.951Z,99140.50
2023-05-10T14:35:28.904Z,99142.59
2023-05-10T14:40:32.667Z,99164.91
2023-05-10T14:45:35.753Z,99173.06
2023-05-10T14:50:40.526Z,99195.84
2023-05-10T14:55:43.807Z,99195.94
2023-05-10T15:00:47.292Z,99197.22
2023-05-10T15:05:52.748Z,99174.91
2023-05-10T15:10:56.761Z,99145.94
2023-05-10T15:16:00.277Z,99140.16
2023-05-10T15:21:04.857Z,99132.19
2023-05-10T15:26:08.701Z,99126.91
2023-05-10T15:31:12.171Z,99133.94
2023-05-10T15:36:18.570Z,99133.31
2023-05-10T15:41:21.720Z,99146.63
2023-05-10T15:46:24.861Z,99146.59
2023-05-10T15:51:29.527Z,99151.06
2023-05-10T15:56:32.587Z,99145.59
2023-05-10T16:01:35.836Z,99151.53
2023-05-10T16:06:41.315Z,99156.78
2023-05-10T16:11:44.851Z,99151.47
2023-05-10T16:16:48.852Z,99148.50
2023-05-10T16:21:53.923Z,99150.28
2023-05-10T16:26:57.112Z,99148.97
2023-05-10T16:32:00.730Z,99153.63
2023-05-10T16:37:05.102Z,99168.81
2023-05-10T16:42:08.334Z,99154.50
2023-05-10T16:47:11.344Z,99156.59
2023-05-10T16:52:16.074Z,99155.09
2023-05-10T16:57:19.523Z,99152.78
2023-05-10T17:02:23.344Z,99169.84
2023-05-10T17:07:29.269Z,99172.84
2023-05-10T17:12:32.650Z,99172.25
2023-05-10T17:17:36.151Z,99175.78
2023-05-10T17:22:40.580Z,99195.06
2023-05-10T17:27:44.134Z,99193.31
2023-05-10T17:32:47.350Z,99203.72
2023-05-10T17:37:51.744Z,99196.00
2023-05-10T17:42:54.755Z,99199.06
2023-05-10T17:47:58.044Z,99191.56
2023-05-10T17:53:02.778Z,99203.25
2023-05-10T17:58:05.954Z,99206.22
2023-05-10T18:03:09.118Z,99213.50
2023-05-10T18:08:13.536Z,99224.94
2023-05-10T18:13:16.795Z,99227.28
2023-05-10T18:18:19.902Z,99241.28
2023-05-10T18:23:25.599Z,99244.78
2023-05-10T18:28:29.049Z,99261.25
2023-05-10T18:33:32.056Z,99284.59
2023-05-10T18:38:37.093Z,99297.84
2023-05-10T18:43:40.157Z,99303.22
2023-05-10T18:48:43.490Z,99306.41
2023-05-10T18:53:48.171Z,99306.84
2023-05-10T18:58:51.811Z,99320.75
2023-05-10T19:03:54.837Z,99320.94
2023-05-10T19:08:59.169Z,99322.34
2023-05-10T19:14:02.835Z,99328.56
2023-05-10T19:19:07.207Z,99323.16
2023-05-10T19:24:12.519Z,99331.56
2023-05-10T19:29:15.823Z,99333.50
2023-05-10T19:34:19.276Z,99342.72
2023-05-10T19:39:23.778Z,99349.25
2023-05-10T19:44:26.878Z,99352.00
2023-05-10T19:49:29.917Z,99360.50
2023-05-10T19:54:34.336Z,99348.59
2023-05-10T19:59:37.789Z,99352.03
2023-05-10T20:04:40.873Z,99337.38
2023-05-10T20:09:45.307Z,99337.41
2023-05-10T20:14:48.763Z,99336.81
2023-05-10T20:19:52.260Z,99337.00
2023-05-10T20:24:58.779Z,99340.13
2023-05-10T20:30:01.861Z,99347.78
2023-05-10T20:35:05.843Z,99342.34
2023-05-10T20:40:11.241Z,99348.84
2023-05-10T20:45:14.287Z,99342.03
2023-05-10T20:50:17.762Z,99344.47
2023-05-10T20:55:22.424Z,99331.03
2023-05-10T21:00:25.962Z,99331.25
2023-05-10T21:05:29.451Z,99331.59
2023-05-10T21:10:34.155Z,99321.09
2023-05-10T21:15:37.189Z,99321.47
2023-05-10T21:20:40.633Z,99322.13
2023-05-10T21:25:45.024Z,99310.91
2023-05-10T21:30:48.186Z,99308.38
2023-05-10T21:35:51.651Z,99327.56
2023-05-10T21:40:56.439Z,99325.19
2023-05-10T21:46:00.001Z,99334.91
2023-05-10T21:51:03.502Z,99327.59
2023-05-10T21:56:08.176Z,99324.53
2023-05-10T22:01:11.549Z,99327.91
2023-05-10T22:06:14.919Z,99330.97
2023-05-10T22:11:19.270Z,99331.63
2023-05-10T22:16:22.780Z,99334.34
2023-05-10T22:21:26.362Z,99336.72
2023-05-10T22:26:31.179Z,99337.22
2023-05-10T22:31:34.563Z,99343.97
2023-05-10T22:36:38.232Z,99339.06
2023-05-10T22:41:42.862Z,99343.78
2023-05-10T22:46:46.186Z,99340.50
2023-05-10T22:51:49.632Z,99344.06
2023-05-10T22:56:54.458Z,99347.25
2023-05-10T23:01:57.908Z,99346.31
2023-05-10T23:07:01.364Z,99349.72
2023-05-10T23:12:06.199Z,99357.34
2023-05-10T23:17:09.402Z,99361.06
2023-05-10T23:22:12.421Z,99371.41
2023-05-10T23:27:17.238Z,99365.28
2023-05-10T23:32:20.388Z,99361.56
2023-05-10T23:37:23.688Z,99366.34
2023-05-10T23:42:28.070Z,99367.94
2023-05-10T23:47:31.143Z,99360.13
2023-05-10T23:52:34.426Z,99371.19
2023-05-10T23:57:39.129Z,99370.84
